createdAt,value
2018-12-29T00:01:58.605Z,102.43
2018-12-29T00:04:28.139Z,98.43
2018-12-29T00:06:57.322Z,104.53
2018-12-29T00:09:26.552Z,93.70
2018-12-29T00:11:55.806Z,100.17
2018-12-29T00:14:25.038Z,103.00
2018-12-29T00:16:54.653Z,94.43
2018-12-29T00:19:23.887Z,93.67
2018-12-29T00:21:53.373Z,93.80
2018-12-29T00:24:22.602Z,96.97
2018-12-29T00:26:52.163Z,87.20
2018-12-29T00:29:21.381Z,91.63
2018-12-29T00:31:50.619Z,90.10
2018-12-29T00:34:19.812Z,92.17
2018-12-29T00:36:49.336Z,90.40
2018-12-29T00:39:18.525Z,89.67
2018-12-29T00:41:47.775Z,92.37
2018-12-29T00:44:17.551Z,96.90
2018-12-29T00:46:46.716Z,92.53
2018-12-29T00:49:15.900Z,93.03
2018-12-29T00:51:45.114Z,93.90
2018-12-29T00:54:14.662Z,81.77
2018-12-29T00:56:43.873Z,84.00
2018-12-29T00:59:13.042Z,94.57
2018-12-29T01:01:42.547Z,92.97
2018-12-29T01:04:11.729Z,90.27
2018-12-29T01:06:40.910Z,85.87
2018-12-29T01:09:10.440Z,84.13
2018-12-29T01:11:39.641Z,85.23
2018-12-29T01:14:08.885Z,88.27
2018-12-29T01:16:38.347Z,77.63
2018-12-29T01:19:07.480Z,84.40
2018-12-29T01:21:36.714Z,89.53
2018-12-29T01:24:05.964Z,84.63
2018-12-29T01:26:35.136Z,81.17
2018-12-29T01:29:04.598Z,86.50
2018-12-29T01:31:33.850Z,85.03
2018-12-29T01:34:03.325Z,84.43
2018-12-29T01:36:32.510Z,84.70
2018-12-29T01:39:02.329Z,82.37
2018-12-29T01:41:31.844Z,77.13
2018-12-29T01:44:00.980Z,79.93
2018-12-29T01:46:30.177Z,80.63
2018-12-29T01:48:59.332Z,73.23
2018-12-29T01:51:28.553Z,76.00
2018-12-29T01:53:57.748Z,79.50
2018-12-29T01:56:26.927Z,71.93
2018-12-29T01:58:56.458Z,78.27
2018-12-29T02:01:26.053Z,72.73
2018-12-29T02:03:55.542Z,70.67
2018-12-29T02:06:25.136Z,68.87
2018-12-29T02:08:54.412Z,67.33
2018-12-29T02:11:23.653Z,72.00
2018-12-29T02:13:52.814Z,67.00
2018-12-29T02:16:22.166Z,86.00
2018-12-29T02:18:51.334Z,71.77
2018-12-29T02:21:20.880Z,75.37
2018-12-29T02:23:50.133Z,76.37
2018-12-29T02:26:19.314Z,75.17
2018-12-29T02:28:48.524Z,79.10
2018-12-29T02:31:18.001Z,74.37
2018-12-29T02:33:47.533Z,85.03
2018-12-29T02:36:16.705Z,79.07
2018-12-29T02:38:45.934Z,77.03
2018-12-29T02:41:15.425Z,79.60
2018-12-29T02:43:44.631Z,79.30
2018-12-29T02:46:13.796Z,88.03
2018-12-29T02:48:42.979Z,75.30
2018-12-29T02:51:12.142Z,71.40
2018-12-29T02:53:41.307Z,76.03
2018-12-29T02:56:10.458Z,75.03
2018-12-29T02:58:39.629Z,74.70
2018-12-29T03:01:08.802Z,76.43
2018-12-29T03:03:37.993Z,74.53
2018-12-29T03:06:07.168Z,74.27
2018-12-29T03:08:37.100Z,81.87
2018-12-29T03:11:06.713Z,76.80
2018-12-29T03:13:35.958Z,80.63
2018-12-29T03:16:05.241Z,88.27
2018-12-29T03:18:34.419Z,71.03
2018-12-29T03:21:03.597Z,88.70
2018-12-29T03:23:32.752Z,82.93
2018-12-29T03:26:02.003Z,85.93
2018-12-29T03:28:31.169Z,84.03
2018-12-29T03:31:00.326Z,76.40
2018-12-29T03:33:29.949Z,75.40
2018-12-29T03:35:59.458Z,82.07
2018-12-29T03:38:28.696Z,82.37
2018-12-29T03:40:58.295Z,75.53
2018-12-29T03:43:27.467Z,79.80
2018-12-29T03:45:57.301Z,77.33
2018-12-29T03:48:26.476Z,81.90
2018-12-29T03:50:55.710Z,72.50
2018-12-29T03:53:25.180Z,77.10
2018-12-29T03:55:55.003Z,87.20
2018-12-29T03:58:24.201Z,72.83
2018-12-29T04:00:53.770Z,76.57
2018-12-29T04:03:23.726Z,71.83
2018-12-29T04:05:53.083Z,68.20
2018-12-29T04:08:22.682Z,73.67
2018-12-29T04:10:51.848Z,71.57
2018-12-29T04:13:21.000Z,72.87
2018-12-29T04:15:57.615Z,74.90
2018-12-29T04:18:21.004Z,71.33
2018-12-29T04:20:50.177Z,74.27
2018-12-29T04:23:19.347Z,70.83
2018-12-29T04:25:48.554Z,71.23
2018-12-29T04:28:17.699Z,69.70
2018-12-29T04:30:47.956Z,70.70
2018-12-29T04:33:17.099Z,71.83
2018-12-29T04:35:46.282Z,71.97
2018-12-29T04:38:15.787Z,73.27
2018-12-29T04:40:45.546Z,78.63
2018-12-29T04:43:14.675Z,73.30
2018-12-29T04:45:44.791Z,62.93
2018-12-29T04:48:13.987Z,74.10
2018-12-29T04:50:43.130Z,78.87
2018-12-29T04:53:12.650Z,72.27
2018-12-29T04:55:41.792Z,73.83
2018-12-29T04:58:10.991Z,66.33
2018-12-29T05:00:40.150Z,62.77
2018-12-29T05:03:09.732Z,68.33
2018-12-29T05:05:38.887Z,66.03
2018-12-29T05:08:08.107Z,66.03
2018-12-29T05:10:37.430Z,64.87
2018-12-29T05:13:07.017Z,64.57
2018-12-29T05:15:36.459Z,67.93
2018-12-29T05:18:05.624Z,67.07
2018-12-29T05:20:35.143Z,63.83
2018-12-29T05:23:04.394Z,67.80
2018-12-29T05:25:33.857Z,68.57
2018-12-29T05:28:03.209Z,64.27
2018-12-29T05:30:32.357Z,73.83
2018-12-29T05:33:01.582Z,67.00
2018-12-29T05:35:31.161Z,61.97
2018-12-29T05:38:00.312Z,66.30
2018-12-29T05:40:29.767Z,61.70
2018-12-29T05:42:58.923Z,67.90
2018-12-29T05:45:28.136Z,65.93
2018-12-29T05:47:57.661Z,64.57
2018-12-29T05:50:27.232Z,64.33
2018-12-29T05:52:56.930Z,66.33
2018-12-29T05:55:26.170Z,70.20
2018-12-29T05:57:55.420Z,62.80
2018-12-29T06:00:24.569Z,64.50
2018-12-29T06:02:54.048Z,65.10
2018-12-29T06:05:23.212Z,67.57
2018-12-29T06:07:52.386Z,69.00
2018-12-29T06:10:21.531Z,67.70
2018-12-29T06:12:51.048Z,62.70
2018-12-29T06:15:20.193Z,63.73
2018-12-29T06:17:49.651Z,61.70
2018-12-29T06:20:18.803Z,66.90
2018-12-29T06:22:47.957Z,65.90
2018-12-29T06:25:17.497Z,62.73
2018-12-29T06:27:46.797Z,64.80
2018-12-29T06:30:16.457Z,60.83
2018-12-29T06:32:45.642Z,65.07
2018-12-29T06:35:15.258Z,64.17
2018-12-29T06:37:44.444Z,65.30
2018-12-29T06:40:13.919Z,75.10
2018-12-29T06:42:43.359Z,71.73
2018-12-29T06:45:12.572Z,73.13
2018-12-29T06:47:41.731Z,80.00
2018-12-29T06:50:11.568Z,79.60
2018-12-29T06:52:41.329Z,86.80
2018-12-29T06:55:10.557Z,72.70
2018-12-29T06:57:40.141Z,84.13
2018-12-29T07:00:09.992Z,85.57
2018-12-29T07:02:39.137Z,86.43
2018-12-29T07:05:08.296Z,87.13
2018-12-29T07:07:37.603Z,82.37
2018-12-29T07:10:06.792Z,91.43
2018-12-29T07:12:35.937Z,83.60
2018-12-29T07:15:05.465Z,82.57
2018-12-29T07:17:34.974Z,80.43
2018-12-29T07:20:04.675Z,87.43
2018-12-29T07:22:33.841Z,89.33
2018-12-29T07:25:03.036Z,85.60
2018-12-29T07:27:32.270Z,89.77
2018-12-29T07:30:01.555Z,85.40
2018-12-29T07:32:31.060Z,83.77
2018-12-29T07:35:00.373Z,86.10
2018-12-29T07:37:29.695Z,89.77
2018-12-29T07:39:58.868Z,90.17
2018-12-29T07:42:28.108Z,86.90
2018-12-29T07:44:57.399Z,92.90
2018-12-29T07:47:26.714Z,90.90
2018-12-29T07:49:56.165Z,85.70
2018-12-29T07:52:25.300Z,86.77
2018-12-29T07:54:54.633Z,90.10
2018-12-29T07:57:24.151Z,93.67
2018-12-29T07:59:53.304Z,85.37
2018-12-29T08:02:22.759Z,84.80
2018-12-29T08:04:52.341Z,84.60
2018-12-29T08:07:21.585Z,96.03
2018-12-29T08:09:50.843Z,89.60
2018-12-29T08:12:20.270Z,91.67
2018-12-29T08:14:49.961Z,90.37
2018-12-29T08:17:19.258Z,82.97
2018-12-29T08:19:48.557Z,90.07
2018-12-29T08:22:17.835Z,89.67
2018-12-29T08:24:47.463Z,87.33
2018-12-29T08:27:16.890Z,84.57
2018-12-29T08:29:46.480Z,81.83
2018-12-29T08:32:15.644Z,83.50
2018-12-29T08:34:44.898Z,81.33
2018-12-29T08:37:14.084Z,79.73
2018-12-29T08:39:43.278Z,74.37
2018-12-29T08:42:12.464Z,86.20
2018-12-29T08:44:41.631Z,77.73
2018-12-29T08:47:10.794Z,80.80
2018-12-29T08:49:41.883Z,85.07
2018-12-29T08:52:11.037Z,85.50
2018-12-29T08:54:40.227Z,86.57
2018-12-29T08:57:09.417Z,85.47
2018-12-29T08:59:38.890Z,80.90
2018-12-29T09:02:08.205Z,83.90
2018-12-29T09:04:37.433Z,83.23
2018-12-29T09:07:07.142Z,80.67
2018-12-29T09:09:36.417Z,81.93
2018-12-29T09:12:06.090Z,82.47
2018-12-29T09:14:35.762Z,80.90
2018-12-29T09:17:12.091Z,80.73
2018-12-29T09:19:37.615Z,88.57
2018-12-29T09:22:07.012Z,88.30
2018-12-29T09:24:36.164Z,96.67
2018-12-29T09:27:05.345Z,87.03
2018-12-29T09:29:34.507Z,98.70
2018-12-29T09:32:04.155Z,87.53
2018-12-29T09:34:33.584Z,87.07
2018-12-29T09:37:02.871Z,86.23
2018-12-29T09:39:32.415Z,86.87
2018-12-29T09:42:01.961Z,87.60
2018-12-29T09:44:31.184Z,90.00
2018-12-29T09:47:00.523Z,102.00
2018-12-29T09:49:29.836Z,98.23
2018-12-29T09:51:59.315Z,88.20
2018-12-29T09:54:28.584Z,87.17
2018-12-29T09:56:58.057Z,94.73
2018-12-29T09:59:27.354Z,87.20
2018-12-29T10:01:56.708Z,84.53
2018-12-29T10:04:25.890Z,93.77
2018-12-29T10:06:55.113Z,90.00
2018-12-29T10:09:24.982Z,93.97
2018-12-29T10:11:54.198Z,87.50
2018-12-29T10:14:23.699Z,85.40
2018-12-29T10:16:52.900Z,88.30
2018-12-29T10:19:22.113Z,94.90
2018-12-29T10:21:51.367Z,97.03
2018-12-29T10:24:20.513Z,91.57
2018-12-29T10:26:49.784Z,94.87
2018-12-29T10:29:19.072Z,96.20
2018-12-29T10:31:48.347Z,90.90
2018-12-29T10:34:17.504Z,99.47
2018-12-29T10:36:47.356Z,100.60
2018-12-29T10:39:16.658Z,102.07
2018-12-29T10:41:45.889Z,96.83
2018-12-29T10:44:15.144Z,107.73
2018-12-29T10:46:44.439Z,104.77
2018-12-29T10:49:13.604Z,106.87
2018-12-29T10:51:43.044Z,109.70
2018-12-29T10:54:12.234Z,110.33
2018-12-29T10:56:41.753Z,112.33
2018-12-29T10:59:11.293Z,98.93
2018-12-29T11:01:40.537Z,115.27
2018-12-29T11:04:10.089Z,107.77
2018-12-29T11:06:39.348Z,111.40
2018-12-29T11:09:08.588Z,105.33
2018-12-29T11:11:37.841Z,108.03
2018-12-29T11:14:07.450Z,109.00
2018-12-29T11:16:39.190Z,102.87
2018-12-29T11:19:08.552Z,105.87
2018-12-29T11:21:37.841Z,106.67
2018-12-29T11:24:07.008Z,108.83
2018-12-29T11:26:36.521Z,100.97
2018-12-29T11:29:05.744Z,96.67
2018-12-29T11:31:34.900Z,87.60
2018-12-29T11:34:04.109Z,93.13
2018-12-29T11:36:33.284Z,97.73
2018-12-29T11:39:03.900Z,88.03
2018-12-29T11:41:33.071Z,89.50
2018-12-29T11:44:02.337Z,93.60
2018-12-29T11:46:31.885Z,86.17
2018-12-29T11:49:01.988Z,91.40
2018-12-29T11:51:31.333Z,84.50
2018-12-29T11:54:00.574Z,95.10
2018-12-29T11:56:30.013Z,85.00
2018-12-29T11:58:59.247Z,88.20
2018-12-29T12:01:46.458Z,83.40
2018-12-29T12:04:39.925Z,84.03
2018-12-29T12:07:09.249Z,78.77
2018-12-29T12:09:38.490Z,75.00
2018-12-29T12:12:11.096Z,80.23
2018-12-29T12:14:40.331Z,78.43
2018-12-29T12:17:09.831Z,74.97
2018-12-29T12:19:39.424Z,79.37
2018-12-29T12:22:08.652Z,76.40
2018-12-29T12:24:37.903Z,71.87
2018-12-29T12:27:07.115Z,65.10
2018-12-29T12:29:36.655Z,69.47
2018-12-29T12:32:06.523Z,70.83
2018-12-29T12:34:36.046Z,78.83
2018-12-29T12:37:05.394Z,73.33
2018-12-29T12:39:34.627Z,66.03
2018-12-29T12:42:04.250Z,71.00
2018-12-29T12:44:33.490Z,73.27
2018-12-29T12:47:03.361Z,78.80
2018-12-29T12:49:32.608Z,69.17
2018-12-29T12:52:01.883Z,70.27
2018-12-29T12:54:31.472Z,73.53
2018-12-29T12:57:01.461Z,79.73
2018-12-29T12:59:40.167Z,68.10
2018-12-29T13:02:09.707Z,72.10
2018-12-29T13:04:39.521Z,71.47
2018-12-29T13:07:09.132Z,71.47
2018-12-29T13:09:38.648Z,64.10
2018-12-29T13:12:08.226Z,65.30
2018-12-29T13:14:37.523Z,66.47
2018-12-29T13:17:07.453Z,68.83
2018-12-29T13:19:37.070Z,65.40
2018-12-29T13:22:06.651Z,64.97
2018-12-29T13:24:36.262Z,62.13
2018-12-29T13:27:05.525Z,52.93
2018-12-29T13:29:34.785Z,58.67
2018-12-29T13:32:04.603Z,66.13
2018-12-29T13:34:33.953Z,70.10
2018-12-29T13:37:03.543Z,56.57
2018-12-29T13:39:32.795Z,57.37
2018-12-29T13:42:02.371Z,61.97
2018-12-29T13:44:31.921Z,64.50
2018-12-29T13:47:01.182Z,59.83
2018-12-29T13:49:30.843Z,59.67
2018-12-29T13:52:00.276Z,66.93
2018-12-29T13:54:29.790Z,54.83
2018-12-29T13:56:59.325Z,52.83
2018-12-29T13:59:29.007Z,56.30
2018-12-29T14:01:58.246Z,56.23
2018-12-29T14:04:27.909Z,57.03
2018-12-29T14:06:57.217Z,66.30
2018-12-29T14:09:26.547Z,55.93
2018-12-29T14:11:56.210Z,65.50
2018-12-29T14:14:26.685Z,52.00
2018-12-29T14:16:56.385Z,53.87
2018-12-29T14:19:25.627Z,49.57
2018-12-29T14:21:54.954Z,57.37
2018-12-29T14:24:24.214Z,53.33
2018-12-29T14:26:53.482Z,49.57
2018-12-29T14:29:23.040Z,53.33
2018-12-29T14:31:52.324Z,47.60
2018-12-29T14:34:21.634Z,51.13
2018-12-29T14:36:50.894Z,47.93
2018-12-29T14:39:20.126Z,53.47
2018-12-29T14:41:50.558Z,53.63
2018-12-29T14:44:20.045Z,46.37
2018-12-29T14:46:49.340Z,46.93
2018-12-29T14:49:18.792Z,44.97
2018-12-29T14:51:48.054Z,50.30
2018-12-29T14:54:17.556Z,41.30
2018-12-29T14:56:46.821Z,45.03
2018-12-29T14:59:15.964Z,46.67
2018-12-29T15:01:45.136Z,52.53
2018-12-29T15:04:14.975Z,34.90
2018-12-29T15:06:44.767Z,41.77
2018-12-29T15:09:13.938Z,42.87
2018-12-29T15:11:43.388Z,35.13
2018-12-29T15:14:12.640Z,45.10
2018-12-29T15:16:42.079Z,41.83
2018-12-29T15:19:11.345Z,35.63
2018-12-29T15:21:40.698Z,42.43
2018-12-29T15:24:10.493Z,33.40
2018-12-29T15:26:39.736Z,31.27
2018-12-29T15:29:09.811Z,36.87
2018-12-29T15:31:39.415Z,35.60
2018-12-29T15:34:08.687Z,28.20
2018-12-29T15:36:38.336Z,52.00
2018-12-29T15:39:08.091Z,29.07
2018-12-29T15:41:37.337Z,26.57
2018-12-29T15:44:07.027Z,36.87
2018-12-29T15:46:36.266Z,22.17
2018-12-29T15:49:05.699Z,24.57
2018-12-29T15:51:35.357Z,23.17
2018-12-29T15:54:04.931Z,26.37
2018-12-29T15:56:34.494Z,18.67
2018-12-29T15:59:03.746Z,18.93
2018-12-29T16:01:33.292Z,25.03
2018-12-29T16:04:02.561Z,24.73
2018-12-29T16:06:32.204Z,17.53
2018-12-29T16:09:01.585Z,23.30
2018-12-29T16:11:31.313Z,15.37
2018-12-29T16:14:00.716Z,20.93
2018-12-29T16:16:30.083Z,27.23
2018-12-29T16:19:00.697Z,19.07
2018-12-29T16:21:30.405Z,20.13
2018-12-29T16:24:00.071Z,15.43
2018-12-29T16:26:29.779Z,21.43
2018-12-29T16:28:59.516Z,16.00
2018-12-29T16:31:29.106Z,15.53
2018-12-29T16:34:00.505Z,21.03
2018-12-29T16:36:30.263Z,15.13
2018-12-29T16:38:59.671Z,18.00
2018-12-29T16:41:28.991Z,15.63
2018-12-29T16:43:58.591Z,20.67
2018-12-29T16:46:27.889Z,17.93
2018-12-29T16:48:57.172Z,17.63
2018-12-29T16:51:26.476Z,17.67
2018-12-29T16:53:55.863Z,21.67
2018-12-29T16:56:25.234Z,16.57
2018-12-29T16:58:54.885Z,18.63
2018-12-29T17:01:24.231Z,21.27
2018-12-29T17:03:53.891Z,16.87
2018-12-29T17:06:23.253Z,16.80
2018-12-29T17:08:52.608Z,19.30
2018-12-29T17:11:21.900Z,18.03
2018-12-29T17:13:51.304Z,15.80
2018-12-29T17:16:20.673Z,20.20
2018-12-29T17:18:50.009Z,13.57
2018-12-29T17:21:19.373Z,18.27
2018-12-29T17:23:51.604Z,18.83
2018-12-29T17:26:21.359Z,15.53
2018-12-29T17:28:50.641Z,17.23
2018-12-29T17:31:20.393Z,13.27
2018-12-29T17:33:49.943Z,16.73
2018-12-29T17:36:19.575Z,17.10
2018-12-29T17:38:48.859Z,23.53
2018-12-29T17:41:24.548Z,21.10
2018-12-29T17:43:54.033Z,18.40
2018-12-29T17:46:23.327Z,21.43
2018-12-29T17:48:54.265Z,16.07
2018-12-29T17:51:23.644Z,18.40
2018-12-29T17:53:56.624Z,17.77
2018-12-29T17:56:29.235Z,17.80
2018-12-29T17:58:59.154Z,19.50
2018-12-29T18:01:28.758Z,20.67
2018-12-29T18:03:58.208Z,17.77
2018-12-29T18:06:27.631Z,19.10
2018-12-29T18:08:57.641Z,18.70
2018-12-29T18:11:27.305Z,17.57
2018-12-29T18:13:56.684Z,21.87
2018-12-29T18:16:26.125Z,19.83
2018-12-29T18:18:55.424Z,23.27
2018-12-29T18:21:24.679Z,21.47
2018-12-29T18:23:53.925Z,18.13
2018-12-29T18:26:23.473Z,17.93
2018-12-29T18:28:52.708Z,21.37
2018-12-29T18:31:21.929Z,16.87
2018-12-29T18:33:51.346Z,22.03
2018-12-29T18:36:20.586Z,24.27
2018-12-29T18:38:50.243Z,19.90
2018-12-29T18:41:20.574Z,23.43
2018-12-29T18:43:50.161Z,23.20
2018-12-29T18:46:19.293Z,21.00
2018-12-29T18:48:48.848Z,22.07
2018-12-29T18:51:18.326Z,32.43
2018-12-29T18:53:47.886Z,22.07
2018-12-29T18:56:17.183Z,20.27
2018-12-29T18:58:46.929Z,24.13
2018-12-29T19:01:16.529Z,21.13
2018-12-29T19:03:49.337Z,23.30
2018-12-29T19:06:18.603Z,27.07
2018-12-29T19:08:48.152Z,20.63
2018-12-29T19:11:17.404Z,25.23
2018-12-29T19:13:46.632Z,26.20
2018-12-29T19:16:16.434Z,21.90
2018-12-29T19:18:45.736Z,26.13
2018-12-29T19:21:15.773Z,26.73
2018-12-29T19:23:47.036Z,22.20
2018-12-29T19:26:16.689Z,24.53
2018-12-29T19:28:46.473Z,24.90
2018-12-29T19:31:16.133Z,31.87
2018-12-29T19:33:45.746Z,23.90
2018-12-29T19:36:15.376Z,25.83
2018-12-29T19:38:44.638Z,28.27
2018-12-29T19:41:14.456Z,28.40
2018-12-29T19:43:44.085Z,25.70
2018-12-29T19:46:13.636Z,26.13
2018-12-29T19:48:42.892Z,29.63
2018-12-29T19:51:12.120Z,26.53
2018-12-29T19:53:41.787Z,26.67
2018-12-29T19:56:11.961Z,27.70
2018-12-29T19:58:41.716Z,29.53
2018-12-29T20:01:11.025Z,29.27
2018-12-29T20:03:40.327Z,28.00
2018-12-29T20:06:11.226Z,34.63
2018-12-29T20:08:40.549Z,32.50
2018-12-29T20:11:09.729Z,29.13
2018-12-29T20:13:39.099Z,29.20
2018-12-29T20:16:08.469Z,34.87
2018-12-29T20:18:37.803Z,28.00
2018-12-29T20:21:07.516Z,33.53
2018-12-29T20:23:36.861Z,51.43
2018-12-29T20:26:06.080Z,36.73
2018-12-29T20:28:35.348Z,46.70
2018-12-29T20:31:04.670Z,41.57
2018-12-29T20:33:34.212Z,31.73
2018-12-29T20:36:03.753Z,36.60
2018-12-29T20:38:32.993Z,38.17
2018-12-29T20:41:02.235Z,31.07
2018-12-29T20:43:31.826Z,34.37
2018-12-29T20:46:01.071Z,28.03
2018-12-29T20:48:30.371Z,34.73
2018-12-29T20:50:59.675Z,38.13
2018-12-29T20:53:28.910Z,28.93
2018-12-29T20:55:58.188Z,34.10
2018-12-29T20:58:27.444Z,32.20
2018-12-29T21:00:57.215Z,30.90
2018-12-29T21:03:26.768Z,27.77
2018-12-29T21:05:56.071Z,30.93
2018-12-29T21:08:25.376Z,27.90
2018-12-29T21:10:54.890Z,37.27
2018-12-29T21:13:24.148Z,34.20
2018-12-29T21:15:53.410Z,33.13
2018-12-29T21:18:22.664Z,31.03
2018-12-29T21:20:52.545Z,31.70
2018-12-29T21:23:22.175Z,31.93
2018-12-29T21:25:51.476Z,27.77
2018-12-29T21:28:20.814Z,33.20
2018-12-29T21:30:50.444Z,28.43
2018-12-29T21:33:19.704Z,27.80
2018-12-29T21:35:49.048Z,29.73
2018-12-29T21:38:18.275Z,25.77
2018-12-29T21:40:47.634Z,24.87
2018-12-29T21:43:16.880Z,28.80
2018-12-29T21:45:46.167Z,25.67
2018-12-29T21:48:15.323Z,28.97
2018-12-29T21:50:44.565Z,35.43
2018-12-29T21:53:13.796Z,32.53
2018-12-29T21:55:43.368Z,31.50
2018-12-29T21:58:13.069Z,30.30
2018-12-29T22:00:42.663Z,33.07
2018-12-29T22:03:12.188Z,30.47
2018-12-29T22:05:41.404Z,25.53
2018-12-29T22:08:10.669Z,24.77
2018-12-29T22:10:39.914Z,26.07
2018-12-29T22:13:09.574Z,26.97
2018-12-29T22:15:39.373Z,32.00
2018-12-29T22:18:08.645Z,27.97
2018-12-29T22:20:37.976Z,28.20
2018-12-29T22:23:07.616Z,21.83
2018-12-29T22:25:37.183Z,26.90
2018-12-29T22:28:06.740Z,23.23
2018-12-29T22:30:36.364Z,23.03
2018-12-29T22:33:05.614Z,21.80
2018-12-29T22:35:35.226Z,26.77
2018-12-29T22:38:05.235Z,20.93
2018-12-29T22:40:34.714Z,21.60
2018-12-29T22:43:04.717Z,21.27
2018-12-29T22:45:34.358Z,19.23
2018-12-29T22:48:03.958Z,21.30
2018-12-29T22:50:40.844Z,20.53
2018-12-29T22:53:04.428Z,26.00
2018-12-29T22:55:33.717Z,26.20
2018-12-29T22:58:08.506Z,25.73
2018-12-29T23:00:39.574Z,21.90
2018-12-29T23:03:09.014Z,22.80
2018-12-29T23:05:38.551Z,22.20
2018-12-29T23:08:07.885Z,34.20
2018-12-29T23:10:37.534Z,27.73
2018-12-29T23:13:06.890Z,25.43
2018-12-29T23:15:36.133Z,20.17
2018-12-29T23:18:05.411Z,23.70
2018-12-29T23:20:35.054Z,21.27
2018-12-29T23:23:04.397Z,26.30
2018-12-29T23:25:33.718Z,22.13
2018-12-29T23:28:03.128Z,25.03
2018-12-29T23:30:32.689Z,26.43
2018-12-29T23:33:01.948Z,26.13
2018-12-29T23:35:31.168Z,26.37
2018-12-29T23:38:00.611Z,26.50
2018-12-29T23:40:29.943Z,22.97
2018-12-29T23:42:59.506Z,18.37
2018-12-29T23:45:29.137Z,18.73
2018-12-29T23:47:58.486Z,27.93
2018-12-29T23:50:27.730Z,21.37
2018-12-29T23:52:57.443Z,28.20
2018-12-29T23:55:27.923Z,25.60
2018-12-29T23:57:57.245Z,20.27
